createdAt,value
2023-04-29T00:00:59.428Z,21.29
2023-04-29T00:01:59.366Z,21.27
2023-04-29T00:02:59.538Z,21.30
2023-04-29T00:03:59.684Z,21.29
2023-04-29T00:04:59.739Z,21.29
2023-04-29T00:05:59.612Z,21.29
2023-04-29T00:06:59.594Z,21.30
2023-04-29T00:07:58.642Z,21.26
2023-04-29T00:08:59.691Z,21.34
2023-04-29T00:09:59.662Z,21.26
2023-04-29T00:10:59.717Z,21.31
2023-04-29T00:11:58.812Z,21.31
2023-04-29T00:12:58.832Z,21.30
2023-04-29T00:13:58.760Z,21.30
2023-04-29T00:14:58.796Z,21.24
2023-04-29T00:15:59.795Z,21.23
2023-04-29T00:16:58.857Z,21.24
2023-04-29T00:17:59.945Z,21.20
2023-04-29T00:18:59.907Z,21.23
2023-04-29T00:20:00.365Z,21.27
2023-04-29T00:20:59.136Z,21.27
2023-04-29T00:21:59.670Z,21.26
2023-04-29T00:22:59.327Z,21.24
2023-04-29T00:24:00.106Z,21.26
2023-04-29T00:24:59.137Z,21.24
2023-04-29T00:25:59.122Z,21.24
2023-04-29T00:27:00.153Z,21.27
2023-04-29T00:28:00.283Z,21.23
2023-04-29T00:29:00.287Z,21.23
2023-04-29T00:30:00.291Z,21.22
2023-04-29T00:30:59.373Z,21.23
2023-04-29T00:32:00.416Z,21.23
2023-04-29T00:33:00.723Z,21.26
2023-04-29T00:34:00.516Z,21.27
2023-04-29T00:34:59.543Z,21.29
2023-04-29T00:36:00.599Z,21.26
2023-04-29T00:37:00.735Z,21.26
2023-04-29T00:38:00.655Z,21.23
2023-04-29T00:38:59.965Z,21.31
2023-04-29T00:39:59.704Z,21.36
2023-04-29T00:41:00.753Z,21.27
2023-04-29T00:42:00.816Z,21.24
2023-04-29T00:43:01.046Z,21.24
2023-04-29T00:43:59.839Z,21.23
2023-04-29T00:45:00.893Z,21.27
2023-04-29T00:46:00.923Z,21.27
2023-04-29T00:47:00.938Z,21.27
2023-04-29T00:48:00.984Z,21.29
2023-04-29T00:49:01.000Z,21.26
2023-04-29T00:49:59.985Z,21.23
2023-04-29T00:50:59.976Z,21.17
2023-04-29T00:52:01.022Z,21.24
2023-04-29T00:53:00.240Z,21.26
2023-04-29T00:54:01.208Z,21.23
2023-04-29T00:55:01.134Z,21.17
2023-04-29T00:56:00.148Z,21.20
2023-04-29T00:57:01.155Z,21.23
2023-04-29T00:58:00.223Z,21.29
2023-04-29T00:59:01.241Z,21.19
2023-04-29T01:00:01.390Z,21.16
2023-04-29T01:01:01.313Z,21.17
2023-04-29T01:02:00.777Z,21.19
2023-04-29T01:03:01.575Z,21.19
2023-04-29T01:04:00.599Z,21.24
2023-04-29T01:05:01.012Z,21.22
2023-04-29T01:06:00.454Z,21.20
2023-04-29T01:07:00.499Z,21.22
2023-04-29T01:08:01.604Z,21.26
2023-04-29T01:09:00.524Z,21.23
2023-04-29T01:10:01.896Z,21.22
2023-04-29T01:11:01.533Z,21.20
2023-04-29T01:12:01.565Z,21.20
2023-04-29T01:13:01.634Z,21.22
2023-04-29T01:14:01.607Z,21.20
2023-04-29T01:15:00.588Z,21.19
2023-04-29T01:16:01.707Z,21.19
2023-04-29T01:17:00.618Z,21.19
2023-04-29T01:18:01.725Z,21.20
2023-04-29T01:19:01.705Z,21.24
2023-04-29T01:20:01.777Z,21.23
2023-04-29T01:21:00.845Z,21.19
2023-04-29T01:22:01.831Z,21.24
2023-04-29T01:23:01.857Z,21.23
2023-04-29T01:24:01.846Z,21.17
2023-04-29T01:25:00.868Z,21.20
2023-04-29T01:26:01.967Z,21.19
2023-04-29T01:27:01.945Z,21.19
2023-04-29T01:28:02.088Z,21.17
2023-04-29T01:29:02.065Z,21.14
2023-04-29T01:30:02.182Z,21.22
2023-04-29T01:31:02.132Z,21.17
2023-04-29T01:32:01.145Z,21.14
2023-04-29T01:33:01.253Z,21.19
2023-04-29T01:34:02.230Z,21.20
2023-04-29T01:35:01.239Z,21.16
2023-04-29T01:36:01.276Z,21.20
2023-04-29T01:37:02.278Z,21.17
2023-04-29T01:38:02.361Z,21.14
2023-04-29T01:39:01.301Z,21.17
2023-04-29T01:40:02.364Z,21.14
2023-04-29T01:41:01.386Z,21.19
2023-04-29T01:42:01.393Z,21.16
2023-04-29T01:43:01.441Z,21.20
2023-04-29T01:44:01.436Z,21.16
2023-04-29T01:45:02.502Z,21.24
2023-04-29T01:46:02.519Z,21.19
2023-04-29T01:47:02.658Z,21.16
2023-04-29T01:48:01.651Z,21.14
2023-04-29T01:49:01.606Z,21.14
2023-04-29T01:50:03.056Z,21.17
2023-04-29T01:51:01.662Z,21.14
2023-04-29T01:52:01.749Z,21.16
2023-04-29T01:53:02.674Z,21.13
2023-04-29T01:54:01.654Z,21.16
2023-04-29T01:55:01.761Z,21.17
2023-04-29T01:56:02.747Z,21.16
2023-04-29T01:57:01.683Z,21.16
2023-04-29T01:58:02.714Z,21.11
2023-04-29T01:59:02.730Z,21.13
2023-04-29T02:00:02.814Z,21.14
2023-04-29T02:01:02.883Z,21.19
2023-04-29T02:02:02.769Z,21.11
2023-04-29T02:03:02.891Z,21.22
2023-04-29T02:04:03.046Z,21.14
2023-04-29T02:05:01.969Z,21.14
2023-04-29T02:06:02.875Z,21.13
2023-04-29T02:07:02.849Z,21.17
2023-04-29T02:08:02.866Z,21.19
2023-04-29T02:09:02.959Z,21.17
2023-04-29T02:10:02.905Z,21.14
2023-04-29T02:11:02.903Z,21.11
2023-04-29T02:12:02.933Z,21.10
2023-04-29T02:13:02.967Z,21.14
2023-04-29T02:14:01.968Z,21.16
2023-04-29T02:15:02.995Z,21.17
2023-04-29T02:16:02.059Z,21.19
2023-04-29T02:17:02.085Z,21.24
2023-04-29T02:18:02.114Z,21.16
2023-04-29T02:19:03.072Z,21.14
2023-04-29T02:20:03.135Z,21.17
2023-04-29T02:21:02.197Z,21.13
2023-04-29T02:22:03.192Z,21.16
2023-04-29T02:23:02.253Z,21.11
2023-04-29T02:24:03.182Z,21.11
2023-04-29T02:25:03.197Z,21.17
2023-04-29T02:26:03.237Z,21.16
2023-04-29T02:27:02.211Z,21.11
2023-04-29T02:28:02.200Z,21.16
2023-04-29T02:29:03.286Z,21.11
2023-04-29T02:30:03.232Z,21.11
2023-04-29T02:31:02.335Z,21.11
2023-04-29T02:32:03.413Z,21.14
2023-04-29T02:33:02.426Z,21.13
2023-04-29T02:34:02.383Z,21.10
2023-04-29T02:35:03.339Z,21.09
2023-04-29T02:36:03.368Z,21.13
2023-04-29T02:37:02.374Z,21.14
2023-04-29T02:38:03.361Z,21.19
2023-04-29T02:39:02.348Z,21.13
2023-04-29T02:40:02.380Z,21.16
2023-04-29T02:41:03.423Z,21.13
2023-04-29T02:42:03.448Z,21.10
2023-04-29T02:43:02.489Z,21.11
2023-04-29T02:44:03.539Z,21.09
2023-04-29T02:45:02.478Z,21.14
2023-04-29T02:46:02.805Z,21.17
2023-04-29T02:47:03.553Z,21.11
2023-04-29T02:48:02.551Z,21.16
2023-04-29T02:49:03.627Z,21.10
2023-04-29T02:50:03.413Z,21.10
2023-04-29T02:51:04.077Z,21.09
2023-04-29T02:52:03.643Z,21.11
2023-04-29T02:53:02.756Z,21.10
2023-04-29T02:54:03.902Z,21.17
2023-04-29T02:55:02.704Z,21.14
2023-04-29T02:56:03.756Z,21.16
2023-04-29T02:57:03.845Z,21.10
2023-04-29T02:58:03.812Z,21.10
2023-04-29T02:59:03.820Z,21.14
2023-04-29T03:00:03.820Z,21.13
2023-04-29T03:01:02.867Z,21.11
2023-04-29T03:02:02.858Z,21.09
2023-04-29T03:03:04.013Z,21.13
2023-04-29T03:04:04.121Z,21.11
2023-04-29T03:05:03.893Z,21.14
2023-04-29T03:06:03.946Z,21.14
2023-04-29T03:07:03.910Z,21.16
2023-04-29T03:08:03.948Z,21.17
2023-04-29T03:09:03.076Z,21.14
2023-04-29T03:10:04.026Z,21.13
2023-04-29T03:11:03.020Z,21.05
2023-04-29T03:12:04.092Z,21.10
2023-04-29T03:13:03.202Z,21.03
2023-04-29T03:14:04.044Z,21.07
2023-04-29T03:15:03.199Z,21.13
2023-04-29T03:16:04.057Z,21.09
2023-04-29T03:17:04.161Z,21.10
2023-04-29T03:18:04.123Z,21.10
2023-04-29T03:19:03.153Z,21.11
2023-04-29T03:20:03.111Z,21.09
2023-04-29T03:21:04.109Z,21.10
2023-04-29T03:22:04.129Z,21.10
2023-04-29T03:23:03.152Z,21.13
2023-04-29T03:24:03.156Z,21.10
2023-04-29T03:25:03.165Z,21.09
2023-04-29T03:26:03.237Z,21.07
2023-04-29T03:27:04.183Z,21.07
2023-04-29T03:28:04.422Z,21.05
2023-04-29T03:29:04.229Z,21.05
2023-04-29T03:30:04.236Z,21.03
2023-04-29T03:31:04.262Z,21.09
2023-04-29T03:32:04.262Z,21.07
2023-04-29T03:33:04.365Z,21.03
2023-04-29T03:34:03.268Z,21.10
2023-04-29T03:35:04.319Z,21.07
2023-04-29T03:36:03.302Z,21.03
2023-04-29T03:37:04.293Z,21.05
2023-04-29T03:38:03.293Z,21.11
2023-04-29T03:39:04.324Z,21.09
2023-04-29T03:40:03.336Z,21.07
2023-04-29T03:41:03.357Z,21.13
2023-04-29T03:42:03.321Z,21.06
2023-04-29T03:43:03.367Z,21.09
2023-04-29T03:44:03.313Z,21.03
2023-04-29T03:45:04.370Z,21.07
2023-04-29T03:46:04.460Z,21.09
2023-04-29T03:47:04.331Z,21.11
2023-04-29T03:48:03.368Z,21.09
2023-04-29T03:49:04.385Z,21.06
2023-04-29T03:50:04.369Z,21.07
2023-04-29T03:51:04.341Z,21.07
2023-04-29T03:52:04.403Z,21.02
2023-04-29T03:53:03.385Z,21.03
2023-04-29T03:54:04.408Z,21.02
2023-04-29T03:55:04.525Z,21.05
2023-04-29T03:56:04.467Z,21.07
2023-04-29T03:57:04.454Z,21.06
2023-04-29T03:58:04.447Z,21.07
2023-04-29T03:59:03.523Z,21.06
2023-04-29T04:00:04.467Z,21.09
2023-04-29T04:01:04.501Z,21.06
2023-04-29T04:02:04.556Z,21.06
2023-04-29T04:03:05.294Z,21.07
2023-04-29T04:04:03.724Z,21.05
2023-04-29T04:05:04.655Z,21.09
2023-04-29T04:06:03.529Z,21.10
2023-04-29T04:07:03.539Z,21.14
2023-04-29T04:08:03.548Z,21.09
2023-04-29T04:09:04.694Z,21.09
2023-04-29T04:10:03.571Z,21.10
2023-04-29T04:11:03.546Z,21.09
2023-04-29T04:12:03.577Z,21.10
2023-04-29T04:13:04.587Z,21.05
2023-04-29T04:14:04.606Z,21.09
2023-04-29T04:15:03.630Z,21.02
2023-04-29T04:16:03.647Z,20.99
2023-04-29T04:17:04.681Z,20.97
2023-04-29T04:18:04.718Z,21.06
2023-04-29T04:19:03.713Z,21.02
2023-04-29T04:20:04.788Z,21.06
2023-04-29T04:21:04.893Z,21.06
2023-04-29T04:22:03.841Z,21.05
2023-04-29T04:23:04.762Z,21.03
2023-04-29T04:24:04.762Z,21.09
2023-04-29T04:25:04.732Z,21.07
2023-04-29T04:26:04.727Z,21.09
2023-04-29T04:27:04.818Z,21.05
2023-04-29T04:28:04.825Z,21.02
2023-04-29T04:29:03.733Z,21.09
2023-04-29T04:30:04.723Z,21.10
2023-04-29T04:31:03.733Z,21.03
2023-04-29T04:32:04.843Z,21.09
2023-04-29T04:33:04.772Z,21.06
2023-04-29T04:34:04.785Z,21.02
2023-04-29T04:35:04.827Z,21.05
2023-04-29T04:36:04.782Z,20.99
2023-04-29T04:37:03.790Z,20.99
2023-04-29T04:38:04.819Z,21.06
2023-04-29T04:39:03.842Z,21.03
2023-04-29T04:40:04.873Z,21.05
2023-04-29T04:41:03.887Z,21.06
2023-04-29T04:42:04.885Z,21.06
2023-04-29T04:43:04.928Z,21.05
2023-04-29T04:44:03.928Z,21.05
2023-04-29T04:45:04.958Z,21.05
2023-04-29T04:46:04.945Z,21.02
2023-04-29T04:47:03.960Z,21.03
2023-04-29T04:48:04.968Z,20.97
2023-04-29T04:49:04.962Z,21.02
2023-04-29T04:50:05.006Z,21.03
2023-04-29T04:51:04.986Z,20.97
2023-04-29T04:52:04.989Z,21.05
2023-04-29T04:53:05.004Z,21.06
2023-04-29T04:54:05.025Z,21.03
2023-04-29T04:55:05.086Z,21.00
2023-04-29T04:56:04.064Z,21.00
2023-04-29T04:57:05.092Z,21.05
2023-04-29T04:58:05.089Z,21.07
2023-04-29T04:59:05.088Z,21.10
2023-04-29T05:00:05.211Z,21.05
2023-04-29T05:01:05.197Z,21.05
2023-04-29T05:02:05.142Z,21.05
2023-04-29T05:03:05.280Z,21.05
2023-04-29T05:04:04.322Z,21.06
2023-04-29T05:05:05.251Z,21.06
2023-04-29T05:06:04.151Z,21.11
2023-04-29T05:07:04.241Z,21.07
2023-04-29T05:08:05.250Z,21.05
2023-04-29T05:09:04.207Z,21.05
2023-04-29T05:10:05.281Z,21.06
2023-04-29T05:11:04.276Z,21.03
2023-04-29T05:12:05.250Z,21.06
2023-04-29T05:13:05.400Z,21.06
2023-04-29T05:14:04.297Z,21.02
2023-04-29T05:15:04.298Z,21.06
2023-04-29T05:16:06.670Z,21.00
2023-04-29T05:17:05.510Z,21.05
2023-04-29T05:18:04.368Z,21.03
2023-04-29T05:19:05.453Z,21.03
2023-04-29T05:20:05.358Z,21.06
2023-04-29T05:21:05.355Z,21.06
2023-04-29T05:22:04.386Z,21.07
2023-04-29T05:23:05.394Z,21.00
2023-04-29T05:24:05.404Z,21.02
2023-04-29T05:25:04.422Z,21.05
2023-04-29T05:26:05.424Z,21.10
2023-04-29T05:27:05.479Z,21.06
2023-04-29T05:28:05.440Z,21.02
2023-04-29T05:29:05.443Z,21.03
2023-04-29T05:30:05.566Z,21.00
2023-04-29T05:31:05.490Z,20.99
2023-04-29T05:32:04.669Z,21.00
2023-04-29T05:33:04.643Z,21.00
2023-04-29T05:34:05.530Z,21.05
2023-04-29T05:35:07.339Z,20.99
2023-04-29T05:36:05.521Z,21.03
2023-04-29T05:37:05.537Z,21.03
2023-04-29T05:38:04.485Z,21.05
2023-04-29T05:39:04.495Z,21.03
2023-04-29T05:40:05.493Z,21.06
2023-04-29T05:41:05.000Z,21.02
2023-04-29T05:42:05.590Z,21.03
2023-04-29T05:43:04.475Z,21.06
2023-04-29T05:44:05.460Z,21.00
2023-04-29T05:45:05.480Z,21.03
2023-04-29T05:46:04.505Z,21.02
2023-04-29T05:47:04.438Z,21.05
2023-04-29T05:48:05.507Z,21.03
2023-04-29T05:49:05.455Z,21.06
2023-04-29T05:50:05.439Z,21.06
2023-04-29T05:51:04.469Z,21.00
2023-04-29T05:52:04.429Z,20.96
2023-04-29T05:53:05.397Z,20.99
2023-04-29T05:54:04.384Z,21.05
2023-04-29T05:55:05.428Z,20.97
2023-04-29T05:56:05.397Z,21.03
2023-04-29T05:57:04.395Z,21.03
2023-04-29T05:58:05.355Z,21.00
2023-04-29T05:59:04.367Z,21.05
2023-04-29T06:00:04.453Z,21.09
2023-04-29T06:01:05.481Z,21.06
2023-04-29T06:02:05.351Z,21.07
2023-04-29T06:03:04.462Z,21.07
2023-04-29T06:04:05.552Z,21.05
2023-04-29T06:05:05.495Z,21.06
2023-04-29T06:06:04.584Z,21.07
2023-04-29T06:07:05.353Z,21.05
2023-04-29T06:08:05.305Z,21.06
2023-04-29T06:09:06.708Z,21.05
2023-04-29T06:10:05.380Z,21.02
2023-04-29T06:11:05.346Z,21.06
2023-04-29T06:12:05.391Z,21.07
2023-04-29T06:13:05.261Z,21.05
2023-04-29T06:14:04.843Z,21.06
2023-04-29T06:15:05.436Z,21.03
2023-04-29T06:16:05.321Z,21.07
2023-04-29T06:17:04.279Z,21.05
2023-04-29T06:18:05.300Z,21.05
2023-04-29T06:19:05.212Z,21.05
2023-04-29T06:20:04.234Z,21.06
2023-04-29T06:21:04.265Z,21.11
2023-04-29T06:22:05.214Z,21.13
2023-04-29T06:23:04.347Z,21.09
2023-04-29T06:24:05.190Z,21.10
2023-04-29T06:25:05.238Z,21.06
2023-04-29T06:26:05.249Z,21.11
2023-04-29T06:27:05.223Z,21.07
2023-04-29T06:28:04.331Z,21.06
2023-04-29T06:29:04.193Z,21.09
2023-04-29T06:30:05.188Z,21.06
2023-04-29T06:31:05.250Z,21.11
2023-04-29T06:32:05.206Z,21.10
2023-04-29T06:33:04.206Z,21.09
2023-04-29T06:34:04.165Z,21.07
2023-04-29T06:35:04.173Z,21.09
2023-04-29T06:36:05.120Z,21.14
2023-04-29T06:37:04.114Z,21.13
2023-04-29T06:38:04.198Z,21.22
2023-04-29T06:39:05.174Z,21.20
2023-04-29T06:40:05.161Z,21.13
2023-04-29T06:41:05.189Z,21.13
2023-04-29T06:42:04.214Z,21.14
2023-04-29T06:43:04.194Z,21.20
2023-04-29T06:44:05.226Z,21.20
2023-04-29T06:45:05.235Z,21.20
2023-04-29T06:46:05.273Z,21.16
2023-04-29T06:47:04.340Z,21.17
2023-04-29T06:48:05.333Z,21.19
2023-04-29T06:49:05.319Z,21.13
2023-04-29T06:50:05.276Z,21.16
2023-04-29T06:51:05.297Z,21.19
2023-04-29T06:52:04.309Z,21.19
2023-04-29T06:53:05.292Z,21.22
2023-04-29T06:54:05.322Z,21.23
2023-04-29T06:55:05.291Z,21.26
2023-04-29T06:56:05.337Z,21.29
2023-04-29T06:57:05.423Z,21.26
2023-04-29T06:58:05.390Z,21.31
2023-04-29T06:59:05.430Z,21.27
2023-04-29T07:00:05.503Z,21.29
2023-04-29T07:01:04.616Z,21.36
2023-04-29T07:02:04.618Z,21.36
2023-04-29T07:03:05.717Z,21.37
2023-04-29T07:04:05.730Z,21.38
2023-04-29T07:05:05.739Z,21.38
2023-04-29T07:06:05.781Z,21.38
2023-04-29T07:07:05.789Z,21.40
2023-04-29T07:08:05.914Z,21.44
2023-04-29T07:09:04.876Z,21.48
2023-04-29T07:10:05.936Z,21.49
2023-04-29T07:11:05.996Z,21.48
2023-04-29T07:12:06.024Z,21.45
2023-04-29T07:13:05.099Z,21.48
2023-04-29T07:14:05.156Z,21.57
2023-04-29T07:15:06.163Z,21.54
2023-04-29T07:16:06.236Z,21.59
2023-04-29T07:17:05.314Z,21.58
2023-04-29T07:18:06.386Z,21.58
2023-04-29T07:19:06.396Z,21.61
2023-04-29T07:20:06.447Z,21.61
2023-04-29T07:21:05.554Z,21.64
2023-04-29T07:22:06.530Z,21.62
2023-04-29T07:23:05.592Z,21.68
2023-04-29T07:24:06.652Z,21.66
2023-04-29T07:25:05.705Z,21.68
2023-04-29T07:26:06.685Z,21.71
2023-04-29T07:27:06.723Z,21.71
2023-04-29T07:28:06.755Z,21.73
2023-04-29T07:29:06.783Z,21.78
2023-04-29T07:30:05.833Z,21.75
2023-04-29T07:31:06.947Z,21.78
2023-04-29T07:32:05.910Z,21.79
2023-04-29T07:33:05.949Z,21.81
2023-04-29T07:34:07.007Z,21.79
2023-04-29T07:35:07.057Z,21.82
2023-04-29T07:36:07.090Z,21.79
2023-04-29T07:37:07.031Z,21.81
2023-04-29T07:38:07.141Z,21.83
2023-04-29T07:39:06.121Z,21.85
2023-04-29T07:40:06.161Z,21.86
2023-04-29T07:41:06.138Z,21.83
2023-04-29T07:42:06.283Z,21.88
2023-04-29T07:43:06.213Z,21.89
2023-04-29T07:44:07.241Z,21.89
2023-04-29T07:45:07.292Z,21.92
2023-04-29T07:46:07.302Z,21.95
2023-04-29T07:47:07.261Z,21.92
2023-04-29T07:48:06.301Z,21.92
2023-04-29T07:49:06.335Z,21.93
2023-04-29T07:50:07.301Z,21.96
2023-04-29T07:51:07.387Z,21.95
2023-04-29T07:52:06.391Z,21.97
2023-04-29T07:53:07.406Z,21.97
2023-04-29T07:54:07.429Z,21.99
2023-04-29T07:55:06.421Z,22.00
2023-04-29T07:56:07.458Z,21.99
2023-04-29T07:57:06.413Z,22.00
2023-04-29T07:58:07.421Z,22.00
2023-04-29T07:59:07.449Z,22.01
2023-04-29T08:00:07.514Z,22.01
2023-04-29T08:01:07.489Z,22.04
2023-04-29T08:02:07.487Z,22.01
2023-04-29T08:03:06.762Z,22.06
2023-04-29T08:04:08.039Z,22.04
2023-04-29T08:05:07.838Z,22.07
2023-04-29T08:06:07.711Z,22.07
2023-04-29T08:07:07.533Z,22.07
2023-04-29T08:08:06.533Z,22.08
2023-04-29T08:09:07.594Z,22.11
2023-04-29T08:10:06.624Z,22.11
2023-04-29T08:11:06.744Z,22.13
2023-04-29T08:12:07.662Z,22.14
2023-04-29T08:13:06.672Z,22.11
2023-04-29T08:14:07.688Z,22.11
2023-04-29T08:15:07.786Z,22.16
2023-04-29T08:16:07.769Z,22.16
2023-04-29T08:17:07.750Z,22.16
2023-04-29T08:18:07.728Z,22.18
2023-04-29T08:19:07.693Z,22.18
2023-04-29T08:20:06.701Z,22.16
2023-04-29T08:21:07.690Z,22.16
2023-04-29T08:22:06.692Z,22.16
2023-04-29T08:23:07.711Z,22.16
2023-04-29T08:24:07.663Z,22.13
2023-04-29T08:25:07.652Z,22.14
2023-04-29T08:26:07.891Z,22.13
2023-04-29T08:27:06.647Z,22.11
2023-04-29T08:28:07.684Z,22.13
2023-04-29T08:29:07.661Z,22.11
2023-04-29T08:30:07.656Z,22.11
2023-04-29T08:31:07.625Z,22.10
2023-04-29T08:32:06.778Z,22.11
2023-04-29T08:33:07.650Z,22.10
2023-04-29T08:34:06.580Z,22.10
2023-04-29T08:35:06.584Z,22.10
2023-04-29T08:36:06.609Z,22.10
2023-04-29T08:37:07.596Z,22.11
2023-04-29T08:38:07.692Z,22.07
2023-04-29T08:39:07.563Z,22.10
2023-04-29T08:40:07.944Z,22.08
2023-04-29T08:41:07.547Z,22.08
2023-04-29T08:42:07.959Z,22.07
2023-04-29T08:43:06.523Z,22.10
2023-04-29T08:44:06.543Z,22.11
2023-04-29T08:45:07.566Z,22.13
2023-04-29T08:46:07.562Z,22.10
2023-04-29T08:47:07.552Z,22.10
2023-04-29T08:48:07.712Z,22.10
2023-04-29T08:49:07.512Z,22.10
2023-04-29T08:50:07.518Z,22.10
2023-04-29T08:51:07.506Z,22.13
2023-04-29T08:52:06.751Z,22.10
2023-04-29T08:53:06.510Z,22.10
2023-04-29T08:54:06.524Z,22.11
2023-04-29T08:55:07.541Z,22.11
2023-04-29T08:56:07.592Z,22.13
2023-04-29T08:57:07.625Z,22.14
2023-04-29T08:58:07.660Z,22.14
2023-04-29T08:59:07.651Z,22.16
2023-04-29T09:00:07.740Z,22.18
2023-04-29T09:01:06.847Z,22.18
2023-04-29T09:02:07.798Z,22.18
2023-04-29T09:03:07.901Z,22.21
2023-04-29T09:04:06.864Z,22.23
2023-04-29T09:05:07.001Z,22.23
2023-04-29T09:06:07.934Z,22.23
2023-04-29T09:07:08.007Z,22.23
2023-04-29T09:08:07.998Z,22.23
2023-04-29T09:09:07.009Z,22.24
2023-04-29T09:10:08.027Z,22.23
2023-04-29T09:11:07.081Z,22.24
2023-04-29T09:12:07.114Z,22.23
2023-04-29T09:13:07.168Z,22.21
2023-04-29T09:14:08.214Z,22.21
2023-04-29T09:15:08.265Z,22.20
2023-04-29T09:16:08.374Z,22.18
2023-04-29T09:17:08.284Z,22.20
2023-04-29T09:18:07.325Z,22.17
2023-04-29T09:19:07.459Z,22.21
2023-04-29T09:20:08.448Z,22.24
2023-04-29T09:21:07.481Z,22.24
2023-04-29T09:22:07.470Z,22.25
2023-04-29T09:23:07.521Z,22.27
2023-04-29T09:24:08.551Z,22.28
2023-04-29T09:25:07.615Z,22.27
2023-04-29T09:26:08.661Z,22.30
2023-04-29T09:27:08.697Z,22.30
2023-04-29T09:28:08.782Z,22.28
2023-04-29T09:29:07.783Z,22.28
2023-04-29T09:30:07.795Z,22.32
2023-04-29T09:31:08.839Z,22.34
2023-04-29T09:32:08.896Z,22.32
2023-04-29T09:33:09.007Z,22.32
2023-04-29T09:34:08.978Z,22.34
2023-04-29T09:35:07.979Z,22.34
2023-04-29T09:36:09.026Z,22.35
2023-04-29T09:37:09.105Z,22.35
2023-04-29T09:38:08.139Z,22.37
2023-04-29T09:39:08.256Z,22.32
2023-04-29T09:40:08.236Z,22.34
2023-04-29T09:41:09.264Z,22.35
2023-04-29T09:42:09.288Z,22.32
2023-04-29T09:43:09.373Z,22.32
2023-04-29T09:44:09.432Z,22.32
2023-04-29T09:45:09.420Z,22.31
2023-04-29T09:46:08.529Z,22.31
2023-04-29T09:47:09.543Z,22.34
2023-04-29T09:48:08.545Z,22.35
2023-04-29T09:49:08.605Z,22.35
2023-04-29T09:50:09.651Z,22.37
2023-04-29T09:51:08.633Z,22.40
2023-04-29T09:52:08.707Z,22.40
2023-04-29T09:53:09.777Z,22.41
2023-04-29T09:54:09.841Z,22.42
2023-04-29T09:55:08.822Z,22.41
2023-04-29T09:56:08.871Z,22.42
2023-04-29T09:57:08.935Z,22.44
2023-04-29T09:58:09.932Z,22.44
2023-04-29T09:59:10.009Z,22.41
2023-04-29T10:00:10.019Z,22.44
2023-04-29T10:01:10.112Z,22.42
2023-04-29T10:02:09.121Z,22.47
2023-04-29T10:03:09.282Z,22.47
2023-04-29T10:04:10.317Z,22.45
2023-04-29T10:05:09.434Z,22.49
2023-04-29T10:06:10.289Z,22.49
2023-04-29T10:07:10.331Z,22.47
2023-04-29T10:08:10.369Z,22.47
2023-04-29T10:09:10.411Z,22.48
2023-04-29T10:10:10.470Z,22.47
2023-04-29T10:11:09.504Z,22.48
2023-04-29T10:12:10.559Z,22.51
2023-04-29T10:13:09.591Z,22.51
2023-04-29T10:14:09.682Z,22.48
2023-04-29T10:15:10.707Z,22.52
2023-04-29T10:16:10.750Z,22.49
2023-04-29T10:17:10.859Z,22.52
2023-04-29T10:18:10.843Z,22.49
2023-04-29T10:19:10.862Z,22.52
2023-04-29T10:20:10.781Z,22.52
2023-04-29T10:21:09.798Z,22.55
2023-04-29T10:22:09.751Z,22.54
2023-04-29T10:23:10.737Z,22.54
2023-04-29T10:24:10.755Z,22.55
2023-04-29T10:25:10.742Z,22.54
2023-04-29T10:26:09.737Z,22.54
2023-04-29T10:27:10.769Z,22.54
2023-04-29T10:28:10.720Z,22.52
2023-04-29T10:29:10.725Z,22.49
2023-04-29T10:30:10.712Z,22.48
2023-04-29T10:31:09.731Z,22.49
2023-04-29T10:32:10.837Z,22.48
2023-04-29T10:33:09.729Z,22.48
2023-04-29T10:34:10.728Z,22.51
2023-04-29T10:35:10.657Z,22.48
2023-04-29T10:36:09.676Z,22.49
2023-04-29T10:37:10.667Z,22.49
2023-04-29T10:38:09.649Z,22.55
2023-04-29T10:39:10.666Z,22.55
2023-04-29T10:40:10.657Z,22.51
2023-04-29T10:41:10.656Z,22.49
2023-04-29T10:42:10.606Z,22.52
2023-04-29T10:43:09.616Z,22.48
2023-04-29T10:44:10.599Z,22.44
2023-04-29T10:45:09.591Z,22.42
2023-04-29T10:46:10.704Z,22.41
2023-04-29T10:47:09.676Z,22.42
2023-04-29T10:48:10.798Z,22.40
2023-04-29T10:49:09.764Z,22.40
2023-04-29T10:50:10.751Z,22.40
2023-04-29T10:51:10.786Z,22.41
2023-04-29T10:52:09.878Z,22.38
2023-04-29T10:53:09.886Z,22.40
2023-04-29T10:54:11.067Z,22.38
2023-04-29T10:55:11.012Z,22.37
2023-04-29T10:56:11.302Z,22.38
2023-04-29T10:57:11.113Z,22.37
2023-04-29T10:58:10.117Z,22.37
2023-04-29T10:59:10.158Z,22.35
2023-04-29T11:00:12.415Z,22.38
2023-04-29T11:01:11.257Z,22.38
2023-04-29T11:02:10.203Z,22.37
2023-04-29T11:03:11.251Z,22.37
2023-04-29T11:04:10.250Z,22.37
2023-04-29T11:05:11.220Z,22.38
2023-04-29T11:06:11.261Z,22.38
2023-04-29T11:07:10.182Z,22.40
2023-04-29T11:08:11.163Z,22.42
2023-04-29T11:09:10.225Z,22.40
2023-04-29T11:10:12.631Z,22.42
2023-04-29T11:11:10.340Z,22.42
2023-04-29T11:12:11.374Z,22.42
2023-04-29T11:13:11.427Z,22.42
2023-04-29T11:14:10.461Z,22.42
2023-04-29T11:15:11.529Z,22.42
2023-04-29T11:16:10.635Z,22.47
2023-04-29T11:17:10.597Z,22.48
2023-04-29T11:18:10.634Z,22.44
2023-04-29T11:19:11.672Z,22.45
2023-04-29T11:20:11.704Z,22.48
2023-04-29T11:21:10.757Z,22.49
2023-04-29T11:22:11.851Z,22.48
2023-04-29T11:23:11.813Z,22.49
2023-04-29T11:24:10.862Z,22.49
2023-04-29T11:25:11.917Z,22.48
2023-04-29T11:26:11.962Z,22.49
2023-04-29T11:27:11.999Z,22.51
2023-04-29T11:28:12.089Z,22.48
2023-04-29T11:29:11.130Z,22.49
2023-04-29T11:30:12.194Z,22.49
2023-04-29T11:31:12.214Z,22.48
2023-04-29T11:32:11.383Z,22.51
2023-04-29T11:33:11.385Z,22.52
2023-04-29T11:34:12.364Z,22.54
2023-04-29T11:35:12.374Z,22.52
2023-04-29T11:36:12.395Z,22.49
2023-04-29T11:37:11.389Z,22.55
2023-04-29T11:38:12.439Z,22.54
2023-04-29T11:39:11.493Z,22.54
2023-04-29T11:40:12.686Z,22.52
2023-04-29T11:41:12.556Z,22.54
2023-04-29T11:42:12.611Z,22.54
2023-04-29T11:43:12.663Z,22.52
2023-04-29T11:44:12.726Z,22.54
2023-04-29T11:45:12.743Z,22.54
2023-04-29T11:46:11.830Z,22.52
2023-04-29T11:47:12.855Z,22.54
2023-04-29T11:48:11.920Z,22.51
2023-04-29T11:49:11.884Z,22.49
2023-04-29T11:50:11.975Z,22.51
2023-04-29T11:51:12.981Z,22.51
2023-04-29T11:52:13.041Z,22.52
2023-04-29T11:53:13.287Z,22.51
2023-04-29T11:54:12.172Z,22.52
2023-04-29T11:55:12.193Z,22.52
2023-04-29T11:56:13.215Z,22.51
2023-04-29T11:57:13.256Z,22.52
2023-04-29T11:58:12.266Z,22.51
2023-04-29T11:59:13.328Z,22.55
2023-04-29T12:00:12.423Z,22.54
2023-04-29T12:01:13.379Z,22.54
2023-04-29T12:02:13.501Z,22.52
2023-04-29T12:03:12.658Z,22.52
2023-04-29T12:04:13.995Z,22.55
2023-04-29T12:05:14.057Z,22.54
2023-04-29T12:06:12.622Z,22.54
2023-04-29T12:07:12.652Z,22.49
2023-04-29T12:08:13.656Z,22.48
2023-04-29T12:09:13.717Z,22.48
2023-04-29T12:10:12.857Z,22.51
2023-04-29T12:11:13.828Z,22.51
2023-04-29T12:12:12.871Z,22.49
2023-04-29T12:13:12.901Z,22.51
2023-04-29T12:14:13.902Z,22.49
2023-04-29T12:15:13.035Z,22.44
2023-04-29T12:16:14.026Z,22.45
2023-04-29T12:17:12.999Z,22.48
2023-04-29T12:18:14.069Z,22.45
2023-04-29T12:19:14.125Z,22.48
2023-04-29T12:20:14.155Z,22.47
2023-04-29T12:21:13.208Z,22.45
2023-04-29T12:22:14.225Z,22.47
2023-04-29T12:23:13.262Z,22.48
2023-04-29T12:24:13.340Z,22.48
2023-04-29T12:25:14.352Z,22.48
2023-04-29T12:26:14.442Z,22.48
2023-04-29T12:27:14.413Z,22.47
2023-04-29T12:28:14.484Z,22.47
2023-04-29T12:29:14.515Z,22.48
2023-04-29T12:30:14.551Z,22.47
2023-04-29T12:31:14.623Z,22.47
2023-04-29T12:32:13.622Z,22.45
2023-04-29T12:33:13.857Z,22.42
2023-04-29T12:34:14.738Z,22.47
2023-04-29T12:35:14.811Z,22.45
2023-04-29T12:36:14.809Z,22.45
2023-04-29T12:37:14.846Z,22.48
2023-04-29T12:38:14.918Z,22.49
2023-04-29T12:39:15.041Z,22.49
2023-04-29T12:40:14.968Z,22.49
2023-04-29T12:41:14.998Z,22.51
2023-04-29T12:42:15.068Z,22.48
2023-04-29T12:43:15.125Z,22.49
2023-04-29T12:44:14.180Z,22.49
2023-04-29T12:45:14.184Z,22.51
2023-04-29T12:46:14.234Z,22.52
2023-04-29T12:47:15.486Z,22.51
2023-04-29T12:48:25.540Z,22.52
2023-04-29T12:49:15.299Z,22.52
2023-04-29T12:50:15.277Z,22.54
2023-04-29T12:51:15.284Z,22.51
2023-04-29T12:52:15.275Z,22.48
2023-04-29T12:53:15.305Z,22.49